sensor_id;sensor_type;location;lat;lon;timestamp;P1;durP1;ratioP1;P2;durP2;ratioP2
20928;SDS011;21895;47.072;15.132;2024-02-15T00:02:22;3.53;;;1.10;;
20928;SDS011;21895;47.072;15.132;2024-02-15T00:04:49;2.70;;;1.40;;
20928;SDS011;21895;47.072;15.132;2024-02-15T00:07:15;1.23;;;1.00;;
20928;SDS011;21895;47.072;15.132;2024-02-15T00:09:42;3.47;;;1.17;;
20928;SDS011;21895;47.072;15.132;2024-02-15T00:12:09;2.80;;;1.83;;
20928;SDS011;21895;47.072;15.132;2024-02-15T00:14:36;5.50;;;1.63;;
20928;SDS011;21895;47.072;15.132;2024-02-15T00:17:03;3.00;;;2.00;;
20928;SDS011;21895;47.072;15.132;2024-02-15T00:19:30;4.60;;;1.83;;
20928;SDS011;21895;47.072;15.132;2024-02-15T00:21:57;3.63;;;1.90;;
20928;SDS011;21895;47.072;15.132;2024-02-15T00:24:24;3.00;;;0.93;;
20928;SDS011;21895;47.072;15.132;2024-02-15T00:26:50;3.87;;;1.47;;
20928;SDS011;21895;47.072;15.132;2024-02-15T00:29:17;6.47;;;1.60;;
20928;SDS011;21895;47.072;15.132;2024-02-15T00:31:43;1.97;;;0.93;;
20928;SDS011;21895;47.072;15.132;2024-02-15T00:34:10;7.70;;;1.00;;
20928;SDS011;21895;47.072;15.132;2024-02-15T00:36:37;1.70;;;1.13;;
20928;SDS011;21895;47.072;15.132;2024-02-15T00:39:08;12.97;;;1.77;;
20928;SDS011;21895;47.072;15.132;2024-02-15T00:41:37;1.60;;;1.13;;
20928;SDS011;21895;47.072;15.132;2024-02-15T00:44:10;3.47;;;1.00;;
20928;SDS011;21895;47.072;15.132;2024-02-15T00:46:37;3.13;;;1.60;;
20928;SDS011;21895;47.072;15.132;2024-02-15T00:49:04;2.67;;;0.97;;
20928;SDS011;21895;47.072;15.132;2024-02-15T00:51:35;1.97;;;1.20;;
20928;SDS011;21895;47.072;15.132;2024-02-15T00:54:02;2.30;;;1.20;;
20928;SDS011;21895;47.072;15.132;2024-02-15T00:56:29;3.77;;;1.17;;
20928;SDS011;21895;47.072;15.132;2024-02-15T00:58:58;1.97;;;0.97;;
20928;SDS011;21895;47.072;15.132;2024-02-15T01:01:30;5.50;;;2.73;;
20928;SDS011;21895;47.072;15.132;2024-02-15T01:03:57;5.93;;;1.83;;
20928;SDS011;21895;47.072;15.132;2024-02-15T01:06:24;4.67;;;0.90;;
20928;SDS011;21895;47.072;15.132;2024-02-15T01:08:51;3.07;;;1.47;;
20928;SDS011;21895;47.072;15.132;2024-02-15T01:11:18;3.63;;;1.03;;
20928;SDS011;21895;47.072;15.132;2024-02-15T01:13:44;1.67;;;1.00;;
20928;SDS011;21895;47.072;15.132;2024-02-15T01:16:11;13.13;;;2.00;;
20928;SDS011;21895;47.072;15.132;2024-02-15T01:18:38;5.13;;;1.67;;
20928;SDS011;21895;47.072;15.132;2024-02-15T01:21:05;2.50;;;1.13;;
20928;SDS011;21895;47.072;15.132;2024-02-15T01:23:32;2.40;;;1.70;;
20928;SDS011;21895;47.072;15.132;2024-02-15T01:26:02;2.80;;;1.23;;
20928;SDS011;21895;47.072;15.132;2024-02-15T01:28:29;1.73;;;1.27;;
20928;SDS011;21895;47.072;15.132;2024-02-15T01:30:55;2.40;;;1.23;;
20928;SDS011;21895;47.072;15.132;2024-02-15T01:33:22;2.67;;;1.23;;
20928;SDS011;21895;47.072;15.132;2024-02-15T01:35:49;4.47;;;2.23;;
20928;SDS011;21895;47.072;15.132;2024-02-15T01:38:15;3.57;;;1.90;;
20928;SDS011;21895;47.072;15.132;2024-02-15T01:40:42;1.00;;;0.90;;
20928;SDS011;21895;47.072;15.132;2024-02-15T01:43:08;1.80;;;0.90;;
20928;SDS011;21895;47.072;15.132;2024-02-15T01:45:35;3.77;;;1.37;;
20928;SDS011;21895;47.072;15.132;2024-02-15T01:48:01;2.27;;;1.10;;
20928;SDS011;21895;47.072;15.132;2024-02-15T01:50:29;0.67;;;0.60;;
20928;SDS011;21895;47.072;15.132;2024-02-15T01:52:59;2.47;;;1.20;;
20928;SDS011;21895;47.072;15.132;2024-02-15T01:55:32;1.73;;;1.23;;
20928;SDS011;21895;47.072;15.132;2024-02-15T01:58:00;2.53;;;1.17;;
20928;SDS011;21895;47.072;15.132;2024-02-15T02:00:28;3.00;;;0.90;;
20928;SDS011;21895;47.072;15.132;2024-02-15T02:02:57;4.73;;;1.00;;
20928;SDS011;21895;47.072;15.132;2024-02-15T02:05:28;0.87;;;0.77;;
20928;SDS011;21895;47.072;15.132;2024-02-15T02:07:56;1.57;;;1.03;;
20928;SDS011;21895;47.072;15.132;2024-02-15T02:10:30;2.80;;;1.17;;
20928;SDS011;21895;47.072;15.132;2024-02-15T02:12:59;2.37;;;1.47;;
20928;SDS011;21895;47.072;15.132;2024-02-15T02:15:28;1.97;;;1.13;;
20928;SDS011;21895;47.072;15.132;2024-02-15T02:17:57;3.80;;;1.63;;
20928;SDS011;21895;47.072;15.132;2024-02-15T02:20:27;2.67;;;1.30;;
20928;SDS011;21895;47.072;15.132;2024-02-15T02:22:54;1.37;;;0.90;;
20928;SDS011;21895;47.072;15.132;2024-02-15T02:26:27;1.23;;;0.60;;
20928;SDS011;21895;47.072;15.132;2024-02-15T02:28:56;1.67;;;1.27;;
20928;SDS011;21895;47.072;15.132;2024-02-15T02:31:25;1.03;;;0.67;;
20928;SDS011;21895;47.072;15.132;2024-02-15T02:33:52;1.37;;;1.03;;
20928;SDS011;21895;47.072;15.132;2024-02-15T02:36:20;4.00;;;1.00;;
20928;SDS011;21895;47.072;15.132;2024-02-15T02:38:47;2.90;;;1.17;;
20928;SDS011;21895;47.072;15.132;2024-02-15T02:41:16;1.87;;;1.10;;
20928;SDS011;21895;47.072;15.132;2024-02-15T02:43:44;1.83;;;1.30;;
20928;SDS011;21895;47.072;15.132;2024-02-15T02:46:11;1.57;;;0.90;;
20928;SDS011;21895;47.072;15.132;2024-02-15T02:48:38;3.23;;;1.13;;
20928;SDS011;21895;47.072;15.132;2024-02-15T02:51:06;0.57;;;0.57;;
20928;SDS011;21895;47.072;15.132;2024-02-15T02:53:33;2.37;;;1.30;;
20928;SDS011;21895;47.072;15.132;2024-02-15T02:56:00;3.03;;;1.53;;
20928;SDS011;21895;47.072;15.132;2024-02-15T02:58:27;0.87;;;0.87;;
20928;SDS011;21895;47.072;15.132;2024-02-15T03:00:54;6.40;;;1.60;;
20928;SDS011;21895;47.072;15.132;2024-02-15T03:03:23;0.83;;;0.83;;
20928;SDS011;21895;47.072;15.132;2024-02-15T03:05:50;1.70;;;1.07;;
20928;SDS011;21895;47.072;15.132;2024-02-15T03:08:16;0.97;;;0.80;;
20928;SDS011;21895;47.072;15.132;2024-02-15T03:10:43;1.80;;;0.90;;
20928;SDS011;21895;47.072;15.132;2024-02-15T03:13:09;2.17;;;0.90;;
20928;SDS011;21895;47.072;15.132;2024-02-15T03:15:37;3.30;;;1.23;;
20928;SDS011;21895;47.072;15.132;2024-02-15T03:18:04;2.50;;;1.03;;
20928;SDS011;21895;47.072;15.132;2024-02-15T03:20:32;0.60;;;0.60;;
20928;SDS011;21895;47.072;15.132;2024-02-15T03:23:02;1.17;;;0.80;;
20928;SDS011;21895;47.072;15.132;2024-02-15T03:25:29;0.83;;;0.73;;
20928;SDS011;21895;47.072;15.132;2024-02-15T03:27:56;4.63;;;1.13;;
20928;SDS011;21895;47.072;15.132;2024-02-15T03:30:29;2.63;;;1.20;;
20928;SDS011;21895;47.072;15.132;2024-02-15T03:32:59;1.83;;;0.93;;
20928;SDS011;21895;47.072;15.132;2024-02-15T03:35:30;13.80;;;1.00;;
20928;SDS011;21895;47.072;15.132;2024-02-15T03:37:57;1.90;;;0.90;;
20928;SDS011;21895;47.072;15.132;2024-02-15T03:40:24;4.43;;;0.93;;
20928;SDS011;21895;47.072;15.132;2024-02-15T03:42:55;0.77;;;0.77;;
20928;SDS011;21895;47.072;15.132;2024-02-15T03:45:22;1.30;;;0.80;;
20928;SDS011;21895;47.072;15.132;2024-02-15T03:47:53;4.53;;;1.43;;
20928;SDS011;21895;47.072;15.132;2024-02-15T03:50:23;0.80;;;0.80;;
20928;SDS011;21895;47.072;15.132;2024-02-15T03:52:50;2.03;;;1.00;;
20928;SDS011;21895;47.072;15.132;2024-02-15T03:55:17;0.93;;;0.80;;
20928;SDS011;21895;47.072;15.132;2024-02-15T03:57:45;1.23;;;0.93;;
20928;SDS011;21895;47.072;15.132;2024-02-15T04:00:12;2.00;;;0.90;;
20928;SDS011;21895;47.072;15.132;2024-02-15T04:02:46;3.27;;;1.33;;
20928;SDS011;21895;47.072;15.132;2024-02-15T04:05:16;7.27;;;1.80;;
20928;SDS011;21895;47.072;15.132;2024-02-15T04:07:44;0.80;;;0.80;;
20928;SDS011;21895;47.072;15.132;2024-02-15T04:10:10;3.70;;;1.83;;
20928;SDS011;21895;47.072;15.132;2024-02-15T04:12:37;3.77;;;1.57;;
20928;SDS011;21895;47.072;15.132;2024-02-15T04:15:07;3.83;;;1.43;;
20928;SDS011;21895;47.072;15.132;2024-02-15T04:17:37;5.53;;;1.93;;
20928;SDS011;21895;47.072;15.132;2024-02-15T04:20:04;4.17;;;1.53;;
20928;SDS011;21895;47.072;15.132;2024-02-15T04:22:32;3.57;;;1.50;;
20928;SDS011;21895;47.072;15.132;2024-02-15T04:25:03;11.17;;;1.53;;
20928;SDS011;21895;47.072;15.132;2024-02-15T04:27:42;3.27;;;1.33;;
20928;SDS011;21895;47.072;15.132;2024-02-15T04:30:14;2.23;;;1.13;;
20928;SDS011;21895;47.072;15.132;2024-02-15T04:32:41;2.03;;;1.37;;
20928;SDS011;21895;47.072;15.132;2024-02-15T04:35:08;3.97;;;1.80;;
20928;SDS011;21895;47.072;15.132;2024-02-15T04:37:39;3.40;;;1.50;;
20928;SDS011;21895;47.072;15.132;2024-02-15T04:40:06;3.10;;;1.03;;
20928;SDS011;21895;47.072;15.132;2024-02-15T04:42:38;5.93;;;1.57;;
20928;SDS011;21895;47.072;15.132;2024-02-15T04:45:05;0.83;;;0.83;;
20928;SDS011;21895;47.072;15.132;2024-02-15T04:47:34;1.20;;;1.00;;
20928;SDS011;21895;47.072;15.132;2024-02-15T04:50:01;2.30;;;1.17;;
20928;SDS011;21895;47.072;15.132;2024-02-15T04:52:29;3.83;;;1.10;;
20928;SDS011;21895;47.072;15.132;2024-02-15T04:54:55;2.63;;;1.63;;
20928;SDS011;21895;47.072;15.132;2024-02-15T04:57:24;1.63;;;1.10;;
20928;SDS011;21895;47.072;15.132;2024-02-15T04:59:54;4.63;;;1.53;;
20928;SDS011;21895;47.072;15.132;2024-02-15T05:02:21;3.93;;;1.60;;
20928;SDS011;21895;47.072;15.132;2024-02-15T05:04:50;7.63;;;2.17;;
20928;SDS011;21895;47.072;15.132;2024-02-15T05:07:22;4.10;;;1.70;;
20928;SDS011;21895;47.072;15.132;2024-02-15T05:09:49;2.10;;;1.03;;
20928;SDS011;21895;47.072;15.132;2024-02-15T05:12:22;2.60;;;1.37;;
20928;SDS011;21895;47.072;15.132;2024-02-15T05:14:53;2.93;;;0.90;;
20928;SDS011;21895;47.072;15.132;2024-02-15T05:17:20;1.73;;;0.90;;
20928;SDS011;21895;47.072;15.132;2024-02-15T05:19:47;1.43;;;1.07;;
20928;SDS011;21895;47.072;15.132;2024-02-15T05:22:15;4.57;;;1.33;;
20928;SDS011;21895;47.072;15.132;2024-02-15T05:24:44;4.27;;;2.03;;
20928;SDS011;21895;47.072;15.132;2024-02-15T05:27:11;2.40;;;1.13;;
20928;SDS011;21895;47.072;15.132;2024-02-15T05:29:38;1.43;;;1.00;;
20928;SDS011;21895;47.072;15.132;2024-02-15T05:32:07;3.57;;;1.50;;
20928;SDS011;21895;47.072;15.132;2024-02-15T05:34:34;2.70;;;0.70;;
20928;SDS011;21895;47.072;15.132;2024-02-15T05:37:05;1.97;;;0.90;;
20928;SDS011;21895;47.072;15.132;2024-02-15T05:39:36;1.47;;;0.87;;
20928;SDS011;21895;47.072;15.132;2024-02-15T05:42:02;2.17;;;0.83;;
20928;SDS011;21895;47.072;15.132;2024-02-15T05:44:30;2.60;;;1.33;;
20928;SDS011;21895;47.072;15.132;2024-02-15T05:46:57;1.73;;;0.87;;
20928;SDS011;21895;47.072;15.132;2024-02-15T05:49:26;1.33;;;1.00;;
20928;SDS011;21895;47.072;15.132;2024-02-15T05:51:53;11.60;;;0.80;;
20928;SDS011;21895;47.072;15.132;2024-02-15T05:54:20;2.17;;;1.20;;
20928;SDS011;21895;47.072;15.132;2024-02-15T05:56:48;1.17;;;0.90;;
20928;SDS011;21895;47.072;15.132;2024-02-15T05:59:17;2.80;;;1.13;;
20928;SDS011;21895;47.072;15.132;2024-02-15T06:01:46;0.77;;;0.77;;
20928;SDS011;21895;47.072;15.132;2024-02-15T06:04:17;4.37;;;1.53;;
20928;SDS011;21895;47.072;15.132;2024-02-15T06:06:45;5.20;;;1.60;;
20928;SDS011;21895;47.072;15.132;2024-02-15T06:09:14;7.73;;;0.90;;
20928;SDS011;21895;47.072;15.132;2024-02-15T06:11:41;6.20;;;1.07;;
20928;SDS011;21895;47.072;15.132;2024-02-15T06:14:10;1.30;;;0.83;;
20928;SDS011;21895;47.072;15.132;2024-02-15T06:16:45;2.90;;;1.00;;
20928;SDS011;21895;47.072;15.132;2024-02-15T06:19:12;5.83;;;1.50;;
20928;SDS011;21895;47.072;15.132;2024-02-15T06:21:40;1.83;;;1.10;;
20928;SDS011;21895;47.072;15.132;2024-02-15T06:24:07;1.07;;;0.73;;
20928;SDS011;21895;47.072;15.132;2024-02-15T06:26:35;1.17;;;0.80;;
20928;SDS011;21895;47.072;15.132;2024-02-15T06:29:01;2.93;;;0.90;;
20928;SDS011;21895;47.072;15.132;2024-02-15T06:31:46;2.00;;;1.03;;
20928;SDS011;21895;47.072;15.132;2024-02-15T06:34:31;17.90;;;6.17;;
20928;SDS011;21895;47.072;15.132;2024-02-15T06:40:20;20.67;;;4.07;;
20928;SDS011;21895;47.072;15.132;2024-02-15T06:42:48;11.33;;;4.03;;
20928;SDS011;21895;47.072;15.132;2024-02-15T06:45:15;23.77;;;3.90;;
20928;SDS011;21895;47.072;15.132;2024-02-15T06:47:43;6.20;;;2.33;;
20928;SDS011;21895;47.072;15.132;2024-02-15T06:50:11;9.23;;;2.63;;
20928;SDS011;21895;47.072;15.132;2024-02-15T06:52:39;4.17;;;2.30;;
20928;SDS011;21895;47.072;15.132;2024-02-15T06:55:07;14.03;;;4.33;;
20928;SDS011;21895;47.072;15.132;2024-02-15T06:57:40;13.30;;;4.83;;
20928;SDS011;21895;47.072;15.132;2024-02-15T07:00:08;7.47;;;4.60;;
20928;SDS011;21895;47.072;15.132;2024-02-15T07:02:41;11.93;;;4.00;;
20928;SDS011;21895;47.072;15.132;2024-02-15T07:05:09;19.53;;;3.87;;
20928;SDS011;21895;47.072;15.132;2024-02-15T07:07:36;12.90;;;4.40;;
20928;SDS011;21895;47.072;15.132;2024-02-15T07:10:04;14.67;;;3.90;;
20928;SDS011;21895;47.072;15.132;2024-02-15T07:12:32;11.97;;;3.77;;
20928;SDS011;21895;47.072;15.132;2024-02-15T07:14:58;7.20;;;3.53;;
20928;SDS011;21895;47.072;15.132;2024-02-15T07:17:27;7.50;;;2.97;;
20928;SDS011;21895;47.072;15.132;2024-02-15T07:19:54;6.93;;;3.87;;
20928;SDS011;21895;47.072;15.132;2024-02-15T07:22:21;12.07;;;4.63;;
20928;SDS011;21895;47.072;15.132;2024-02-15T07:24:48;14.30;;;4.60;;
20928;SDS011;21895;47.072;15.132;2024-02-15T07:27:15;8.27;;;4.07;;
20928;SDS011;21895;47.072;15.132;2024-02-15T07:29:42;6.83;;;3.57;;
20928;SDS011;21895;47.072;15.132;2024-02-15T07:32:09;17.47;;;4.23;;
20928;SDS011;21895;47.072;15.132;2024-02-15T07:34:38;11.57;;;3.70;;
20928;SDS011;21895;47.072;15.132;2024-02-15T07:37:04;9.53;;;3.57;;
20928;SDS011;21895;47.072;15.132;2024-02-15T07:39:33;11.40;;;3.73;;
20928;SDS011;21895;47.072;15.132;2024-02-15T07:42:01;23.63;;;4.03;;
20928;SDS011;21895;47.072;15.132;2024-02-15T07:44:30;15.63;;;3.40;;
20928;SDS011;21895;47.072;15.132;2024-02-15T07:46:58;10.67;;;4.60;;
20928;SDS011;21895;47.072;15.132;2024-02-15T07:49:26;13.03;;;3.70;;
20928;SDS011;21895;47.072;15.132;2024-02-15T07:51:53;13.10;;;3.93;;
20928;SDS011;21895;47.072;15.132;2024-02-15T07:54:20;8.87;;;3.30;;
20928;SDS011;21895;47.072;15.132;2024-02-15T07:56:47;4.57;;;1.90;;
20928;SDS011;21895;47.072;15.132;2024-02-15T07:59:14;16.60;;;2.27;;
20928;SDS011;21895;47.072;15.132;2024-02-15T08:01:47;7.40;;;2.97;;
20928;SDS011;21895;47.072;15.132;2024-02-15T08:04:16;9.23;;;3.53;;
20928;SDS011;21895;47.072;15.132;2024-02-15T08:06:44;12.67;;;4.30;;
20928;SDS011;21895;47.072;15.132;2024-02-15T08:09:11;20.63;;;4.87;;
20928;SDS011;21895;47.072;15.132;2024-02-15T08:11:40;5.13;;;2.40;;
20928;SDS011;21895;47.072;15.132;2024-02-15T08:14:07;4.73;;;1.93;;
20928;SDS011;21895;47.072;15.132;2024-02-15T08:16:39;5.73;;;1.60;;
20928;SDS011;21895;47.072;15.132;2024-02-15T08:19:07;6.40;;;2.10;;
20928;SDS011;21895;47.072;15.132;2024-02-15T08:21:34;7.67;;;2.63;;
20928;SDS011;21895;47.072;15.132;2024-02-15T08:24:06;7.20;;;3.37;;
20928;SDS011;21895;47.072;15.132;2024-02-15T08:26:35;9.53;;;3.40;;
20928;SDS011;21895;47.072;15.132;2024-02-15T08:29:05;12.83;;;3.97;;
20928;SDS011;21895;47.072;15.132;2024-02-15T08:31:32;16.00;;;4.60;;
20928;SDS011;21895;47.072;15.132;2024-02-15T08:34:02;9.27;;;3.73;;
20928;SDS011;21895;47.072;15.132;2024-02-15T08:36:31;11.33;;;4.13;;
20928;SDS011;21895;47.072;15.132;2024-02-15T08:38:58;19.57;;;4.07;;
20928;SDS011;21895;47.072;15.132;2024-02-15T08:41:26;10.73;;;3.67;;
20928;SDS011;21895;47.072;15.132;2024-02-15T08:43:53;10.90;;;2.53;;
20928;SDS011;21895;47.072;15.132;2024-02-15T08:46:22;5.43;;;2.83;;
20928;SDS011;21895;47.072;15.132;2024-02-15T08:48:50;7.90;;;3.23;;
20928;SDS011;21895;47.072;15.132;2024-02-15T08:51:17;15.47;;;3.40;;
20928;SDS011;21895;47.072;15.132;2024-02-15T08:53:50;18.20;;;3.33;;
20928;SDS011;21895;47.072;15.132;2024-02-15T08:56:19;6.90;;;2.90;;
20928;SDS011;21895;47.072;15.132;2024-02-15T08:58:45;8.80;;;3.10;;
20928;SDS011;21895;47.072;15.132;2024-02-15T09:01:13;8.23;;;3.63;;
20928;SDS011;21895;47.072;15.132;2024-02-15T09:03:40;4.27;;;2.50;;
20928;SDS011;21895;47.072;15.132;2024-02-15T09:06:07;6.93;;;3.07;;
20928;SDS011;21895;47.072;15.132;2024-02-15T09:08:34;9.53;;;3.80;;
20928;SDS011;21895;47.072;15.132;2024-02-15T09:11:01;11.37;;;3.30;;
20928;SDS011;21895;47.072;15.132;2024-02-15T09:13:30;11.67;;;3.83;;
20928;SDS011;21895;47.072;15.132;2024-02-15T09:15:58;9.70;;;4.60;;
20928;SDS011;21895;47.072;15.132;2024-02-15T09:18:24;17.43;;;4.60;;
20928;SDS011;21895;47.072;15.132;2024-02-15T09:20:51;15.93;;;3.80;;
20928;SDS011;21895;47.072;15.132;2024-02-15T09:23:22;19.90;;;4.03;;
20928;SDS011;21895;47.072;15.132;2024-02-15T09:25:51;9.37;;;3.90;;
20928;SDS011;21895;47.072;15.132;2024-02-15T09:28:18;13.73;;;3.67;;
20928;SDS011;21895;47.072;15.132;2024-02-15T09:30:50;14.40;;;3.80;;
20928;SDS011;21895;47.072;15.132;2024-02-15T09:33:18;9.47;;;2.83;;
20928;SDS011;21895;47.072;15.132;2024-02-15T09:35:48;14.10;;;3.23;;
20928;SDS011;21895;47.072;15.132;2024-02-15T09:38:14;6.43;;;2.83;;
20928;SDS011;21895;47.072;15.132;2024-02-15T09:40:42;13.87;;;2.80;;
20928;SDS011;21895;47.072;15.132;2024-02-15T09:43:14;10.43;;;2.80;;
20928;SDS011;21895;47.072;15.132;2024-02-15T09:45:41;11.40;;;3.00;;
20928;SDS011;21895;47.072;15.132;2024-02-15T09:48:09;6.83;;;2.70;;
20928;SDS011;21895;47.072;15.132;2024-02-15T09:50:39;10.27;;;2.47;;
20928;SDS011;21895;47.072;15.132;2024-02-15T09:53:11;4.33;;;1.83;;
20928;SDS011;21895;47.072;15.132;2024-02-15T09:55:40;5.03;;;1.63;;
20928;SDS011;21895;47.072;15.132;2024-02-15T09:58:09;4.47;;;1.60;;
20928;SDS011;21895;47.072;15.132;2024-02-15T10:00:38;5.90;;;2.40;;
20928;SDS011;21895;47.072;15.132;2024-02-15T10:03:05;3.17;;;1.50;;
20928;SDS011;21895;47.072;15.132;2024-02-15T10:05:33;6.60;;;2.40;;
20928;SDS011;21895;47.072;15.132;2024-02-15T10:08:00;4.03;;;2.10;;
20928;SDS011;21895;47.072;15.132;2024-02-15T10:10:28;8.60;;;1.90;;
20928;SDS011;21895;47.072;15.132;2024-02-15T10:12:55;4.57;;;1.90;;
20928;SDS011;21895;47.072;15.132;2024-02-15T10:15:35;8.40;;;2.13;;
20928;SDS011;21895;47.072;15.132;2024-02-15T10:18:04;3.27;;;1.40;;
20928;SDS011;21895;47.072;15.132;2024-02-15T10:20:34;8.60;;;2.53;;
20928;SDS011;21895;47.072;15.132;2024-02-15T10:23:12;15.27;;;2.17;;
20928;SDS011;21895;47.072;15.132;2024-02-15T10:25:43;11.87;;;2.00;;
20928;SDS011;21895;47.072;15.132;2024-02-15T10:28:10;3.93;;;1.57;;
20928;SDS011;21895;47.072;15.132;2024-02-15T10:30:41;4.30;;;1.83;;
20928;SDS011;21895;47.072;15.132;2024-02-15T10:33:20;4.28;;;1.42;;
20928;SDS011;21895;47.072;15.132;2024-02-15T10:36:07;11.50;;;1.67;;
20928;SDS011;21895;47.072;15.132;2024-02-15T10:38:36;5.68;;;2.12;;
20928;SDS011;21895;47.072;15.132;2024-02-15T10:41:03;12.23;;;2.07;;
20928;SDS011;21895;47.072;15.132;2024-02-15T10:43:35;5.77;;;2.20;;
20928;SDS011;21895;47.072;15.132;2024-02-15T10:46:05;9.10;;;2.00;;
20928;SDS011;21895;47.072;15.132;2024-02-15T10:48:36;4.95;;;1.62;;
20928;SDS011;21895;47.072;15.132;2024-02-15T10:51:03;7.68;;;2.25;;
20928;SDS011;21895;47.072;15.132;2024-02-15T10:53:43;6.17;;;2.10;;
20928;SDS011;21895;47.072;15.132;2024-02-15T10:56:21;5.35;;;1.95;;
20928;SDS011;21895;47.072;15.132;2024-02-15T10:59:03;3.40;;;1.80;;
20928;SDS011;21895;47.072;15.132;2024-02-15T11:01:46;6.72;;;1.67;;
20928;SDS011;21895;47.072;15.132;2024-02-15T11:04:23;6.03;;;1.35;;
20928;SDS011;21895;47.072;15.132;2024-02-15T11:06:58;4.18;;;1.25;;
20928;SDS011;21895;47.072;15.132;2024-02-15T11:09:27;9.13;;;1.23;;
20928;SDS011;21895;47.072;15.132;2024-02-15T11:11:55;2.53;;;1.12;;
20928;SDS011;21895;47.072;15.132;2024-02-15T11:14:26;7.25;;;1.30;;
20928;SDS011;21895;47.072;15.132;2024-02-15T11:17:00;2.60;;;1.00;;
20928;SDS011;21895;47.072;15.132;2024-02-15T11:19:40;1.43;;;0.80;;
20928;SDS011;21895;47.072;15.132;2024-02-15T11:22:12;1.67;;;0.93;;
20928;SDS011;21895;47.072;15.132;2024-02-15T11:24:51;4.18;;;0.95;;
20928;SDS011;21895;47.072;15.132;2024-02-15T11:27:25;0.87;;;0.80;;
20928;SDS011;21895;47.072;15.132;2024-02-15T11:29:57;4.28;;;0.90;;
20928;SDS011;21895;47.072;15.132;2024-02-15T11:32:44;1.75;;;0.68;;
20928;SDS011;21895;47.072;15.132;2024-02-15T11:35:18;1.20;;;0.55;;
20928;SDS011;21895;47.072;15.132;2024-02-15T11:37:54;1.20;;;0.40;;
20928;SDS011;21895;47.072;15.132;2024-02-15T11:45:06;0.97;;;0.53;;
20928;SDS011;21895;47.072;15.132;2024-02-15T11:47:36;1.17;;;0.70;;
20928;SDS011;21895;47.072;15.132;2024-02-15T11:50:09;1.05;;;0.62;;
20928;SDS011;21895;47.072;15.132;2024-02-15T11:52:40;0.85;;;0.70;;
20928;SDS011;21895;47.072;15.132;2024-02-15T11:55:11;1.15;;;0.70;;
20928;SDS011;21895;47.072;15.132;2024-02-15T11:57:41;1.67;;;1.00;;
20928;SDS011;21895;47.072;15.132;2024-02-15T12:00:22;6.55;;;1.42;;
20928;SDS011;21895;47.072;15.132;2024-02-15T12:03:08;2.10;;;1.23;;
20928;SDS011;21895;47.072;15.132;2024-02-15T12:05:54;2.87;;;1.50;;
20928;SDS011;21895;47.072;15.132;2024-02-15T12:08:39;3.30;;;1.25;;
20928;SDS011;21895;47.072;15.132;2024-02-15T12:11:29;1.25;;;1.15;;
20928;SDS011;21895;47.072;15.132;2024-02-15T12:14:15;3.08;;;1.45;;
20928;SDS011;21895;47.072;15.132;2024-02-15T12:17:04;2.58;;;1.20;;
20928;SDS011;21895;47.072;15.132;2024-02-15T12:19:54;5.28;;;1.37;;
20928;SDS011;21895;47.072;15.132;2024-02-15T12:22:45;18.30;;;1.50;;
20928;SDS011;21895;47.072;15.132;2024-02-15T12:25:14;4.37;;;1.37;;
20928;SDS011;21895;47.072;15.132;2024-02-15T12:27:46;6.93;;;1.97;;
20928;SDS011;21895;47.072;15.132;2024-02-15T12:30:24;7.03;;;2.00;;
20928;SDS011;21895;47.072;15.132;2024-02-15T12:33:08;17.00;;;3.42;;
20928;SDS011;21895;47.072;15.132;2024-02-15T12:35:38;2.58;;;1.17;;
20928;SDS011;21895;47.072;15.132;2024-02-15T12:38:05;3.12;;;1.37;;
20928;SDS011;21895;47.072;15.132;2024-02-15T12:40:32;6.95;;;1.33;;
20928;SDS011;21895;47.072;15.132;2024-02-15T12:43:06;4.80;;;1.58;;
20928;SDS011;21895;47.072;15.132;2024-02-15T12:45:41;2.53;;;1.37;;
20928;SDS011;21895;47.072;15.132;2024-02-15T12:48:08;13.93;;;1.60;;
20928;SDS011;21895;47.072;15.132;2024-02-15T12:50:41;3.05;;;1.50;;
20928;SDS011;21895;47.072;15.132;2024-02-15T12:53:07;5.55;;;1.60;;
20928;SDS011;21895;47.072;15.132;2024-02-15T12:55:34;2.43;;;1.40;;
20928;SDS011;21895;47.072;15.132;2024-02-15T12:58:06;2.15;;;1.10;;
20928;SDS011;21895;47.072;15.132;2024-02-15T13:00:40;1.83;;;1.23;;
20928;SDS011;21895;47.072;15.132;2024-02-15T13:03:08;2.12;;;1.20;;
20928;SDS011;21895;47.072;15.132;2024-02-15T13:05:40;2.62;;;1.08;;
20928;SDS011;21895;47.072;15.132;2024-02-15T13:08:07;5.63;;;1.23;;
20928;SDS011;21895;47.072;15.132;2024-02-15T13:10:38;3.92;;;0.95;;
20928;SDS011;21895;47.072;15.132;2024-02-15T13:13:06;3.50;;;1.60;;
20928;SDS011;21895;47.072;15.132;2024-02-15T13:15:35;10.02;;;1.30;;
20928;SDS011;21895;47.072;15.132;2024-02-15T13:18:03;1.40;;;1.00;;
20928;SDS011;21895;47.072;15.132;2024-02-15T13:20:30;2.75;;;1.08;;
20928;SDS011;21895;47.072;15.132;2024-02-15T13:23:04;5.00;;;1.30;;
20928;SDS011;21895;47.072;15.132;2024-02-15T13:25:48;5.55;;;1.10;;
20928;SDS011;21895;47.072;15.132;2024-02-15T13:28:17;2.40;;;1.10;;
20928;SDS011;21895;47.072;15.132;2024-02-15T13:30:45;2.15;;;1.23;;
20928;SDS011;21895;47.072;15.132;2024-02-15T13:33:12;2.90;;;1.73;;
20928;SDS011;21895;47.072;15.132;2024-02-15T13:35:41;4.00;;;1.30;;
20928;SDS011;21895;47.072;15.132;2024-02-15T13:38:08;2.12;;;1.00;;
20928;SDS011;21895;47.072;15.132;2024-02-15T13:40:40;1.40;;;1.00;;
20928;SDS011;21895;47.072;15.132;2024-02-15T13:43:07;4.18;;;1.30;;
20928;SDS011;21895;47.072;15.132;2024-02-15T13:45:41;3.72;;;1.20;;
20928;SDS011;21895;47.072;15.132;2024-02-15T13:48:10;4.30;;;1.10;;
20928;SDS011;21895;47.072;15.132;2024-02-15T13:50:40;2.95;;;1.00;;
20928;SDS011;21895;47.072;15.132;2024-02-15T13:53:07;2.53;;;1.15;;
20928;SDS011;21895;47.072;15.132;2024-02-15T13:55:39;2.28;;;1.17;;
20928;SDS011;21895;47.072;15.132;2024-02-15T13:58:06;5.12;;;1.23;;
20928;SDS011;21895;47.072;15.132;2024-02-15T14:00:33;5.12;;;0.90;;
20928;SDS011;21895;47.072;15.132;2024-02-15T14:03:02;1.75;;;1.00;;
20928;SDS011;21895;47.072;15.132;2024-02-15T14:05:31;6.40;;;1.10;;
20928;SDS011;21895;47.072;15.132;2024-02-15T14:07:59;1.70;;;0.90;;
20928;SDS011;21895;47.072;15.132;2024-02-15T14:10:31;3.10;;;1.10;;
20928;SDS011;21895;47.072;15.132;2024-02-15T14:13:02;1.85;;;1.10;;
20928;SDS011;21895;47.072;15.132;2024-02-15T14:15:37;1.30;;;1.10;;
20928;SDS011;21895;47.072;15.132;2024-02-15T14:18:04;2.62;;;1.27;;
20928;SDS011;21895;47.072;15.132;2024-02-15T14:20:45;2.15;;;1.17;;
20928;SDS011;21895;47.072;15.132;2024-02-15T14:23:12;2.35;;;1.30;;
20928;SDS011;21895;47.072;15.132;2024-02-15T14:25:39;2.10;;;1.20;;
20928;SDS011;21895;47.072;15.132;2024-02-15T14:28:06;3.97;;;1.50;;
20928;SDS011;21895;47.072;15.132;2024-02-15T14:30:35;5.27;;;1.63;;
20928;SDS011;21895;47.072;15.132;2024-02-15T14:33:21;2.78;;;1.52;;
20928;SDS011;21895;47.072;15.132;2024-02-15T14:35:48;6.70;;;1.30;;
20928;SDS011;21895;47.072;15.132;2024-02-15T14:38:19;9.15;;;1.30;;
20928;SDS011;21895;47.072;15.132;2024-02-15T14:40:47;3.33;;;1.30;;
20928;SDS011;21895;47.072;15.132;2024-02-15T14:43:26;1.58;;;1.12;;
20928;SDS011;21895;47.072;15.132;2024-02-15T14:45:54;3.65;;;1.35;;
20928;SDS011;21895;47.072;15.132;2024-02-15T14:48:21;3.47;;;1.57;;
20928;SDS011;21895;47.072;15.132;2024-02-15T14:50:49;17.52;;;1.62;;
20928;SDS011;21895;47.072;15.132;2024-02-15T14:53:16;8.40;;;1.20;;
20928;SDS011;21895;47.072;15.132;2024-02-15T14:55:43;3.22;;;1.20;;
20928;SDS011;21895;47.072;15.132;2024-02-15T14:58:12;5.07;;;1.30;;